createdAt,value
2019-01-09T00:01:23.848Z,4.14
2019-01-09T00:03:52.711Z,4.16
2019-01-09T00:06:21.345Z,4.10
2019-01-09T00:08:50.036Z,4.00
2019-01-09T00:11:18.715Z,3.89
2019-01-09T00:13:47.312Z,3.82
2019-01-09T00:16:16.853Z,3.70
2019-01-09T00:18:45.717Z,3.61
2019-01-09T00:21:14.451Z,3.59
2019-01-09T00:23:43.074Z,3.60
2019-01-09T00:26:11.834Z,3.62
2019-01-09T00:28:40.468Z,3.75
2019-01-09T00:31:09.106Z,3.73
2019-01-09T00:33:37.760Z,3.70
2019-01-09T00:36:06.402Z,3.74
2019-01-09T00:38:35.038Z,3.78
2019-01-09T00:41:03.824Z,3.81
2019-01-09T00:43:32.451Z,3.86
2019-01-09T00:46:01.105Z,3.92
2019-01-09T00:48:29.930Z,3.95
2019-01-09T00:50:58.591Z,3.98
2019-01-09T00:53:27.148Z,4.08
2019-01-09T00:55:55.770Z,4.11
2019-01-09T00:58:24.410Z,4.11
2019-01-09T01:00:53.106Z,4.09
2019-01-09T01:03:58.313Z,4.03
2019-01-09T01:07:20.613Z,4.13
2019-01-09T01:10:21.264Z,4.09
2019-01-09T01:13:19.436Z,4.08
2019-01-09T01:16:26.361Z,4.02
2019-01-09T01:19:24.922Z,3.86
2019-01-09T01:21:59.085Z,3.76
2019-01-09T01:25:07.852Z,3.76
2019-01-09T01:27:58.274Z,3.71
2019-01-09T01:31:19.471Z,3.62
2019-01-09T01:34:29.441Z,3.68
2019-01-09T01:37:41.736Z,3.70
2019-01-09T01:40:28.660Z,3.78
2019-01-09T01:43:31.441Z,3.83
2019-01-09T01:46:25.334Z,3.84
2019-01-09T01:49:27.286Z,3.87
2019-01-09T01:52:39.613Z,3.90
2019-01-09T01:55:29.059Z,3.92
2019-01-09T01:58:24.834Z,3.91
2019-01-09T02:01:20.774Z,3.93
2019-01-09T02:04:03.203Z,3.98
2019-01-09T02:07:11.389Z,4.01
2019-01-09T02:10:13.779Z,4.11
2019-01-09T02:13:25.509Z,4.13
2019-01-09T02:16:34.096Z,4.07
2019-01-09T02:19:26.353Z,4.01
2019-01-09T02:22:20.586Z,3.91
2019-01-09T02:25:18.123Z,3.91
2019-01-09T02:27:55.922Z,3.83
2019-01-09T02:31:09.490Z,3.75
2019-01-09T02:33:38.245Z,3.68
2019-01-09T02:36:13.406Z,3.64
2019-01-09T02:38:38.516Z,3.67
2019-01-09T02:41:07.125Z,3.63
2019-01-09T02:43:35.745Z,3.62
2019-01-09T02:46:04.460Z,3.57
2019-01-09T02:48:34.227Z,3.68
2019-01-09T02:51:02.885Z,3.83
2019-01-09T02:53:31.464Z,3.74
2019-01-09T02:56:00.086Z,3.80
2019-01-09T02:58:28.697Z,3.94
2019-01-09T03:00:57.339Z,4.05
2019-01-09T03:03:25.980Z,4.06
2019-01-09T03:05:54.692Z,4.06
2019-01-09T03:08:23.300Z,4.06
2019-01-09T03:10:52.080Z,4.06
2019-01-09T03:13:20.746Z,4.05
2019-01-09T03:15:49.477Z,4.01
2019-01-09T03:18:18.081Z,4.01
2019-01-09T03:20:46.909Z,4.04
2019-01-09T03:23:15.545Z,4.03
2019-01-09T03:25:44.221Z,4.04
2019-01-09T03:28:13.057Z,4.06
2019-01-09T03:30:41.696Z,4.01
2019-01-09T03:33:10.300Z,4.04
2019-01-09T03:35:39.019Z,3.95
2019-01-09T03:38:07.586Z,3.96
2019-01-09T03:40:36.379Z,3.96
2019-01-09T03:43:31.686Z,3.99
2019-01-09T03:46:02.598Z,3.91
2019-01-09T03:48:31.353Z,3.81
2019-01-09T03:51:00.262Z,3.71
2019-01-09T03:53:28.867Z,3.55
2019-01-09T03:55:57.531Z,3.44
2019-01-09T03:58:26.189Z,3.49
2019-01-09T04:00:54.896Z,3.49
2019-01-09T04:03:24.413Z,3.40
2019-01-09T04:05:53.152Z,3.34
2019-01-09T04:08:21.791Z,3.35
2019-01-09T04:10:50.508Z,3.33
2019-01-09T04:13:19.140Z,3.23
2019-01-09T04:15:47.799Z,3.01
2019-01-09T04:18:16.410Z,2.81
2019-01-09T04:20:45.093Z,2.64
2019-01-09T04:23:13.727Z,2.59
2019-01-09T04:25:42.462Z,2.56
2019-01-09T04:28:11.202Z,2.56
2019-01-09T04:30:39.847Z,2.56
2019-01-09T04:33:08.615Z,2.51
2019-01-09T04:35:37.279Z,2.44
2019-01-09T04:38:05.862Z,2.48
2019-01-09T04:40:34.476Z,2.54
2019-01-09T04:43:03.112Z,2.59
2019-01-09T04:45:31.724Z,2.65
2019-01-09T04:48:00.625Z,2.85
2019-01-09T04:50:29.256Z,2.87
2019-01-09T04:52:57.950Z,2.90
2019-01-09T04:55:26.597Z,2.89
2019-01-09T04:57:55.349Z,2.81
2019-01-09T05:00:24.030Z,2.76
2019-01-09T05:02:52.681Z,2.72
2019-01-09T05:05:21.287Z,2.72
2019-01-09T05:07:49.921Z,2.73
2019-01-09T05:10:18.575Z,2.85
2019-01-09T05:12:47.273Z,2.93
2019-01-09T05:15:15.984Z,2.91
2019-01-09T05:17:44.710Z,2.87
2019-01-09T05:20:13.352Z,2.83
2019-01-09T05:22:41.970Z,2.85
2019-01-09T05:25:10.590Z,2.99
2019-01-09T05:27:39.348Z,2.91
2019-01-09T05:30:08.043Z,2.84
2019-01-09T05:32:36.715Z,2.85
2019-01-09T05:35:05.399Z,2.83
2019-01-09T05:37:34.050Z,2.84
2019-01-09T05:40:02.641Z,2.78
2019-01-09T05:42:31.373Z,2.85
2019-01-09T05:44:59.929Z,2.90
2019-01-09T05:47:28.720Z,3.07
2019-01-09T05:49:57.400Z,3.03
2019-01-09T05:52:26.036Z,3.01
2019-01-09T05:54:54.654Z,3.06
2019-01-09T05:57:23.308Z,3.12
2019-01-09T05:59:52.026Z,3.24
2019-01-09T06:02:20.683Z,3.25
2019-01-09T06:04:49.393Z,3.24
2019-01-09T06:07:18.903Z,3.22
2019-01-09T06:09:47.519Z,3.16
2019-01-09T06:12:16.303Z,3.08
2019-01-09T06:14:44.990Z,3.04
2019-01-09T06:17:13.771Z,3.11
2019-01-09T06:19:42.455Z,3.10
2019-01-09T06:22:11.135Z,3.12
2019-01-09T06:24:39.859Z,3.07
2019-01-09T06:27:08.584Z,3.25
2019-01-09T06:29:37.281Z,3.21
2019-01-09T06:32:06.009Z,3.13
2019-01-09T06:34:34.795Z,3.08
2019-01-09T06:37:03.601Z,3.08
2019-01-09T06:39:32.364Z,3.04
2019-01-09T06:42:01.002Z,3.13
2019-01-09T06:44:29.600Z,3.13
2019-01-09T06:46:58.217Z,3.17
2019-01-09T06:49:26.877Z,3.17
2019-01-09T06:51:55.564Z,3.21
2019-01-09T06:54:24.288Z,3.17
2019-01-09T06:56:52.983Z,3.14
2019-01-09T06:59:21.687Z,3.15
2019-01-09T07:01:50.303Z,3.15
2019-01-09T07:04:18.911Z,3.13
2019-01-09T07:06:47.754Z,3.13
2019-01-09T07:09:16.564Z,3.12
2019-01-09T07:11:45.244Z,3.11
2019-01-09T07:14:14.057Z,3.07
2019-01-09T07:16:42.627Z,3.10
2019-01-09T07:19:11.278Z,3.06
2019-01-09T07:21:45.498Z,3.07
2019-01-09T07:24:10.299Z,3.06
2019-01-09T07:26:39.008Z,2.99
2019-01-09T07:29:07.825Z,3.04
2019-01-09T07:31:36.588Z,2.99
2019-01-09T07:34:05.218Z,3.01
2019-01-09T07:36:34.207Z,2.98
2019-01-09T07:39:03.119Z,2.93
2019-01-09T07:41:31.792Z,2.99
2019-01-09T07:44:00.449Z,2.94
2019-01-09T07:46:29.465Z,2.99
2019-01-09T07:48:58.215Z,2.96
2019-01-09T07:51:26.820Z,2.95
2019-01-09T07:53:57.458Z,2.95
2019-01-09T07:56:25.884Z,2.98
2019-01-09T07:58:54.794Z,2.97
2019-01-09T08:01:23.368Z,2.98
2019-01-09T08:03:52.198Z,3.00
2019-01-09T08:06:20.878Z,2.95
2019-01-09T08:08:49.642Z,2.99
2019-01-09T08:11:18.396Z,2.98
2019-01-09T08:13:47.167Z,2.96
2019-01-09T08:16:15.953Z,3.03
2019-01-09T08:18:44.712Z,2.99
2019-01-09T08:21:13.387Z,3.04
2019-01-09T08:23:42.190Z,3.08
2019-01-09T08:26:10.822Z,3.04
2019-01-09T08:28:43.085Z,3.14
2019-01-09T08:31:11.788Z,3.13
2019-01-09T08:33:41.910Z,3.23
2019-01-09T08:36:10.613Z,3.22
2019-01-09T08:38:39.264Z,3.27
2019-01-09T08:41:08.083Z,3.19
2019-01-09T08:43:36.741Z,3.27
2019-01-09T08:46:05.425Z,3.35
2019-01-09T08:48:34.062Z,3.37
2019-01-09T08:51:02.695Z,3.47
2019-01-09T08:53:31.387Z,3.59
2019-01-09T08:56:00.066Z,3.61
2019-01-09T08:58:28.675Z,3.67
2019-01-09T09:00:57.375Z,3.68
2019-01-09T09:03:26.166Z,3.74
2019-01-09T09:05:55.077Z,3.70
2019-01-09T09:08:23.842Z,3.78
2019-01-09T09:10:52.608Z,3.84
2019-01-09T09:13:34.491Z,3.78
2019-01-09T09:16:03.121Z,3.66
2019-01-09T09:18:32.032Z,3.74
2019-01-09T09:21:00.720Z,3.84
2019-01-09T09:23:29.477Z,3.89
2019-01-09T09:25:58.275Z,3.94
2019-01-09T09:28:27.148Z,4.03
2019-01-09T09:30:56.049Z,4.02
2019-01-09T09:33:24.732Z,4.06
2019-01-09T09:35:53.420Z,3.89
2019-01-09T09:38:22.194Z,3.97
2019-01-09T09:40:50.957Z,4.05
2019-01-09T09:43:19.679Z,4.06
2019-01-09T09:45:48.548Z,3.92
2019-01-09T09:48:17.241Z,4.10
2019-01-09T09:50:45.976Z,3.99
2019-01-09T09:53:14.607Z,4.03
2019-01-09T09:55:43.279Z,4.10
2019-01-09T09:58:12.535Z,4.01
2019-01-09T10:00:41.326Z,4.02
2019-01-09T10:03:10.089Z,4.04
2019-01-09T10:05:38.998Z,4.06
2019-01-09T10:08:07.695Z,4.20
2019-01-09T10:10:36.341Z,4.20
2019-01-09T10:13:05.031Z,4.26
2019-01-09T10:15:33.694Z,4.05
2019-01-09T10:18:02.307Z,3.97
2019-01-09T10:20:30.968Z,3.81
2019-01-09T10:22:59.756Z,3.71
2019-01-09T10:25:28.609Z,3.80
2019-01-09T10:27:58.684Z,3.87
2019-01-09T10:30:27.478Z,3.87
2019-01-09T10:32:56.110Z,3.93
2019-01-09T10:35:24.774Z,3.90
2019-01-09T10:37:53.428Z,3.85
2019-01-09T10:40:22.216Z,3.80
2019-01-09T10:42:50.883Z,3.63
2019-01-09T10:45:20.984Z,3.64
2019-01-09T10:47:49.646Z,3.41
2019-01-09T10:50:18.765Z,3.21
2019-01-09T10:52:47.636Z,3.04
2019-01-09T10:55:16.993Z,2.92
2019-01-09T10:57:45.691Z,2.89
2019-01-09T11:00:20.139Z,2.87
2019-01-09T11:02:48.924Z,2.98
2019-01-09T11:05:17.914Z,2.97
2019-01-09T11:07:46.631Z,3.11
2019-01-09T11:10:16.501Z,3.25
2019-01-09T11:12:45.361Z,3.36
2019-01-09T11:15:14.226Z,3.45
2019-01-09T11:17:42.845Z,3.53
2019-01-09T11:20:14.742Z,3.71
2019-01-09T11:22:43.371Z,3.86
2019-01-09T11:25:15.335Z,3.84
2019-01-09T11:27:45.063Z,3.70
2019-01-09T11:30:15.306Z,3.77
2019-01-09T11:32:44.245Z,3.63
2019-01-09T11:35:14.198Z,3.53
2019-01-09T11:37:42.860Z,3.57
2019-01-09T11:40:12.294Z,3.71
2019-01-09T11:42:40.926Z,3.59
2019-01-09T11:45:11.074Z,3.64
2019-01-09T11:47:39.742Z,3.59
2019-01-09T11:50:09.344Z,3.65
2019-01-09T11:52:38.077Z,3.73
2019-01-09T11:55:08.891Z,3.72
2019-01-09T11:57:37.641Z,3.65
2019-01-09T12:00:11.069Z,3.58
2019-01-09T12:02:39.781Z,3.59
2019-01-09T12:05:08.429Z,3.46
2019-01-09T12:07:37.233Z,3.52
2019-01-09T12:10:07.386Z,3.57
2019-01-09T12:12:36.100Z,3.63
2019-01-09T12:15:06.325Z,3.60
2019-01-09T12:17:35.082Z,3.71
2019-01-09T12:20:04.141Z,3.70
2019-01-09T12:22:32.747Z,3.75
2019-01-09T12:25:01.389Z,3.82
2019-01-09T12:27:30.034Z,3.78
2019-01-09T12:29:58.724Z,3.83
2019-01-09T12:32:27.413Z,4.08
2019-01-09T12:34:56.142Z,4.13
2019-01-09T12:37:24.790Z,4.38
2019-01-09T12:39:55.196Z,4.37
2019-01-09T12:42:23.799Z,4.17
2019-01-09T12:44:52.715Z,4.21
2019-01-09T12:47:21.430Z,3.87
2019-01-09T12:49:50.139Z,4.15
2019-01-09T12:52:20.435Z,4.01
2019-01-09T12:54:49.253Z,3.90
2019-01-09T12:57:18.042Z,3.87
2019-01-09T12:59:46.789Z,3.80
2019-01-09T13:02:15.568Z,3.86
2019-01-09T13:04:44.382Z,3.71
2019-01-09T13:07:13.346Z,3.70
2019-01-09T13:09:42.203Z,3.80
2019-01-09T13:12:10.960Z,3.79
2019-01-09T13:14:39.609Z,3.86
2019-01-09T13:17:12.090Z,3.87
2019-01-09T13:19:38.814Z,3.80
2019-01-09T13:22:07.612Z,3.75
2019-01-09T13:24:36.372Z,3.89
2019-01-09T13:27:05.122Z,3.99
2019-01-09T13:29:33.794Z,4.01
2019-01-09T13:32:02.663Z,4.05
2019-01-09T13:34:31.304Z,3.94
2019-01-09T13:37:00.219Z,3.90
2019-01-09T13:39:30.890Z,4.05
2019-01-09T13:41:59.518Z,3.94
2019-01-09T13:44:28.173Z,3.94
2019-01-09T13:46:56.818Z,3.92
2019-01-09T13:49:25.732Z,3.78
2019-01-09T13:51:54.391Z,3.71
2019-01-09T13:54:23.252Z,3.67
2019-01-09T13:56:52.977Z,3.70
2019-01-09T13:59:21.748Z,3.58
2019-01-09T14:01:50.577Z,3.70
2019-01-09T14:04:19.301Z,3.70
2019-01-09T14:06:47.990Z,3.67
2019-01-09T14:09:16.596Z,3.71
2019-01-09T14:11:45.288Z,3.61
2019-01-09T14:14:13.926Z,3.66
2019-01-09T14:16:42.650Z,3.71
2019-01-09T14:19:11.346Z,3.78
2019-01-09T14:21:40.147Z,3.77
2019-01-09T14:24:08.826Z,3.75
2019-01-09T14:26:37.424Z,3.77
2019-01-09T14:29:06.162Z,3.67
2019-01-09T14:31:34.858Z,3.35
2019-01-09T14:34:03.641Z,3.72
2019-01-09T14:36:34.523Z,3.79
2019-01-09T14:39:04.558Z,3.80
2019-01-09T14:41:33.286Z,3.75
2019-01-09T14:44:02.099Z,3.73
2019-01-09T14:46:30.840Z,3.72
2019-01-09T14:48:59.607Z,3.72
2019-01-09T14:51:28.237Z,3.71
2019-01-09T14:53:56.835Z,3.76
2019-01-09T14:56:25.432Z,3.74
2019-01-09T14:58:54.243Z,3.67
2019-01-09T15:01:23.043Z,3.67
2019-01-09T15:03:52.178Z,3.65
2019-01-09T15:06:22.368Z,3.68
2019-01-09T15:08:51.027Z,3.69
2019-01-09T15:11:19.796Z,3.73
2019-01-09T15:13:48.596Z,3.69
2019-01-09T15:16:17.347Z,3.67
2019-01-09T15:18:46.195Z,3.66
2019-01-09T15:21:15.054Z,3.66
2019-01-09T15:23:43.711Z,3.62
2019-01-09T15:26:12.439Z,3.64
2019-01-09T15:28:41.107Z,3.66
2019-01-09T15:31:10.214Z,3.66
2019-01-09T15:33:38.937Z,3.63
2019-01-09T15:36:09.436Z,3.64
2019-01-09T15:38:38.076Z,3.63
2019-01-09T15:41:06.811Z,3.62
2019-01-09T15:43:35.550Z,3.50
2019-01-09T15:46:04.383Z,3.47
2019-01-09T15:48:33.012Z,3.31
2019-01-09T15:51:01.699Z,3.35
2019-01-09T15:53:30.345Z,3.29
2019-01-09T15:55:58.915Z,3.35
2019-01-09T15:58:27.574Z,3.35
2019-01-09T16:00:57.942Z,3.27
2019-01-09T16:03:26.589Z,3.28
2019-01-09T16:05:55.344Z,3.23
2019-01-09T16:08:23.994Z,3.28
2019-01-09T16:10:52.956Z,3.29
2019-01-09T16:13:21.644Z,3.14
2019-01-09T16:15:50.223Z,3.29
2019-01-09T16:18:18.856Z,3.28
2019-01-09T16:20:47.464Z,3.27
2019-01-09T16:23:16.191Z,3.22
2019-01-09T16:25:45.050Z,3.17
2019-01-09T16:28:13.751Z,3.16
2019-01-09T16:30:52.485Z,3.09
2019-01-09T16:33:23.128Z,3.03
2019-01-09T16:35:51.499Z,2.80
2019-01-09T16:38:20.106Z,2.64
2019-01-09T16:40:48.721Z,2.50
2019-01-09T16:43:17.322Z,2.44
2019-01-09T16:45:45.951Z,2.45
2019-01-09T16:48:14.623Z,2.37
2019-01-09T16:50:43.319Z,2.47
2019-01-09T16:53:11.955Z,2.48
2019-01-09T16:55:40.607Z,2.45
2019-01-09T16:58:09.284Z,2.48
2019-01-09T17:00:38.175Z,2.48
2019-01-09T17:03:06.901Z,2.51
2019-01-09T17:05:37.751Z,2.65
2019-01-09T17:08:06.466Z,2.64
2019-01-09T17:10:35.077Z,2.74
2019-01-09T17:13:03.704Z,2.80
2019-01-09T17:15:32.497Z,2.82
2019-01-09T17:18:01.500Z,2.85
2019-01-09T17:20:30.159Z,2.80
2019-01-09T17:22:58.791Z,2.79
2019-01-09T17:25:27.538Z,2.83
2019-01-09T17:27:56.238Z,2.84
2019-01-09T17:30:26.849Z,2.82
2019-01-09T17:32:55.493Z,2.76
2019-01-09T17:35:24.156Z,2.67
2019-01-09T17:37:53.064Z,2.72
2019-01-09T17:40:21.879Z,2.72
2019-01-09T17:42:50.842Z,2.67
2019-01-09T17:45:19.476Z,2.55
2019-01-09T17:47:48.122Z,2.50
2019-01-09T17:50:20.621Z,2.43
2019-01-09T17:52:49.210Z,2.22
2019-01-09T17:55:17.843Z,2.26
2019-01-09T17:57:46.439Z,2.18
2019-01-09T18:00:18.072Z,2.18
2019-01-09T18:02:51.180Z,2.19
2019-01-09T18:05:19.824Z,2.07
2019-01-09T18:07:48.520Z,2.06
2019-01-09T18:10:19.089Z,2.12
2019-01-09T18:12:47.813Z,2.02
2019-01-09T18:15:18.460Z,2.03
2019-01-09T18:17:48.736Z,2.15
2019-01-09T18:20:17.608Z,2.16
2019-01-09T18:22:46.275Z,2.15
2019-01-09T18:25:20.213Z,2.26
2019-01-09T18:27:48.871Z,2.29
2019-01-09T18:30:24.012Z,2.33
2019-01-09T18:33:17.455Z,2.38
2019-01-09T18:36:13.248Z,2.33
2019-01-09T18:38:47.781Z,2.26
2019-01-09T18:41:56.371Z,2.15
2019-01-09T18:44:50.331Z,2.10
2019-01-09T18:47:56.434Z,2.13
2019-01-09T18:51:02.537Z,2.17
2019-01-09T18:53:44.217Z,2.26
2019-01-09T18:56:13.971Z,2.34
2019-01-09T18:58:42.621Z,2.38
2019-01-09T19:01:11.463Z,2.42
2019-01-09T19:03:40.303Z,2.45
2019-01-09T19:06:10.210Z,2.50
2019-01-09T19:08:38.885Z,2.55
2019-01-09T19:11:08.081Z,2.56
2019-01-09T19:13:36.889Z,2.56
2019-01-09T19:16:06.071Z,2.56
2019-01-09T19:18:34.758Z,2.52
2019-01-09T19:21:03.416Z,2.52
2019-01-09T19:23:32.078Z,2.59
2019-01-09T19:26:00.914Z,2.55
2019-01-09T19:28:30.100Z,2.60
2019-01-09T19:30:58.870Z,2.53
2019-01-09T19:33:27.515Z,2.44
2019-01-09T19:35:56.656Z,2.44
2019-01-09T19:38:25.292Z,2.44
2019-01-09T19:40:53.939Z,2.43
2019-01-09T19:43:22.555Z,2.36
2019-01-09T19:45:51.209Z,2.45
2019-01-09T19:48:19.782Z,2.45
2019-01-09T19:50:48.417Z,2.45
2019-01-09T19:53:17.042Z,2.46
2019-01-09T19:55:45.641Z,2.47
2019-01-09T19:58:14.203Z,2.51
2019-01-09T20:00:42.957Z,2.48
2019-01-09T20:03:11.744Z,2.38
2019-01-09T20:05:40.555Z,2.35
2019-01-09T20:08:09.160Z,2.34
2019-01-09T20:10:37.810Z,2.30
2019-01-09T20:13:06.409Z,2.28
2019-01-09T20:15:35.091Z,2.21
2019-01-09T20:18:03.701Z,2.15
2019-01-09T20:20:32.346Z,2.16
2019-01-09T20:23:00.930Z,2.13
2019-01-09T20:25:29.920Z,2.09
2019-01-09T20:27:58.548Z,2.07
2019-01-09T20:30:31.103Z,2.03
2019-01-09T20:32:59.722Z,2.00
2019-01-09T20:35:28.361Z,2.00
2019-01-09T20:37:57.214Z,1.97
2019-01-09T20:40:26.091Z,1.89
2019-01-09T20:42:54.920Z,1.87
2019-01-09T20:45:23.548Z,1.86
2019-01-09T20:47:53.167Z,1.87
2019-01-09T20:50:24.440Z,1.89
2019-01-09T20:52:53.104Z,1.89
2019-01-09T20:55:21.692Z,1.93
2019-01-09T20:57:50.321Z,1.90
2019-01-09T21:00:21.525Z,1.93
2019-01-09T21:02:50.541Z,1.86
2019-01-09T21:05:29.104Z,1.95
2019-01-09T21:07:57.850Z,1.96
2019-01-09T21:10:26.420Z,2.03
2019-01-09T21:12:55.159Z,2.01
2019-01-09T21:15:23.768Z,2.05
2019-01-09T21:17:53.278Z,2.07
2019-01-09T21:20:21.917Z,2.01
2019-01-09T21:22:50.512Z,2.12
2019-01-09T21:25:19.098Z,2.14
2019-01-09T21:27:47.757Z,2.11
2019-01-09T21:30:18.494Z,2.10
2019-01-09T21:32:47.265Z,2.09
2019-01-09T21:35:15.889Z,2.03
2019-01-09T21:37:44.549Z,2.04
2019-01-09T21:40:16.470Z,2.00
2019-01-09T21:42:45.130Z,2.02
2019-01-09T21:45:13.912Z,2.01
2019-01-09T21:47:42.579Z,2.02
2019-01-09T21:50:11.852Z,2.02
2019-01-09T21:52:41.664Z,2.04
2019-01-09T21:55:10.457Z,2.00
2019-01-09T21:57:39.038Z,2.02
2019-01-09T22:00:11.972Z,2.03
2019-01-09T22:02:40.593Z,2.06
2019-01-09T22:05:09.413Z,2.07
2019-01-09T22:07:38.064Z,2.05
2019-01-09T22:10:10.755Z,2.10
2019-01-09T22:12:39.357Z,2.11
2019-01-09T22:15:10.585Z,2.10
2019-01-09T22:17:40.267Z,2.16
2019-01-09T22:20:10.010Z,2.18
2019-01-09T22:22:38.661Z,2.15
2019-01-09T22:25:08.622Z,2.15
2019-01-09T22:27:37.247Z,2.08
2019-01-09T22:30:09.722Z,2.10
2019-01-09T22:32:38.303Z,2.15
2019-01-09T22:35:07.268Z,2.15
2019-01-09T22:37:35.972Z,2.14
2019-01-09T22:40:05.162Z,2.16
2019-01-09T22:42:33.796Z,2.16
2019-01-09T22:45:02.440Z,2.22
2019-01-09T22:47:31.067Z,2.24
2019-01-09T22:49:59.705Z,2.23
2019-01-09T22:52:28.275Z,2.24
2019-01-09T22:54:56.883Z,2.28
2019-01-09T22:57:25.560Z,2.31
2019-01-09T22:59:54.220Z,2.30
2019-01-09T23:02:23.780Z,2.31
2019-01-09T23:04:52.399Z,2.31
2019-01-09T23:07:21.094Z,2.33
2019-01-09T23:09:49.646Z,2.33
2019-01-09T23:12:21.471Z,2.34
2019-01-09T23:14:48.529Z,2.30
2019-01-09T23:17:17.185Z,2.35
2019-01-09T23:19:45.770Z,2.33
2019-01-09T23:22:14.410Z,2.35
2019-01-09T23:24:42.997Z,2.35
2019-01-09T23:27:11.694Z,2.36
2019-01-09T23:29:40.297Z,2.36
2019-01-09T23:32:08.915Z,2.34
2019-01-09T23:34:37.524Z,2.32
2019-01-09T23:37:06.124Z,2.33
2019-01-09T23:39:34.698Z,2.32
2019-01-09T23:42:03.330Z,2.32
2019-01-09T23:44:31.946Z,2.32
2019-01-09T23:47:00.568Z,2.31
2019-01-09T23:49:29.230Z,2.24
2019-01-09T23:51:57.844Z,2.28
2019-01-09T23:54:26.525Z,2.30
2019-01-09T23:56:55.212Z,2.32
2019-01-09T23:59:23.854Z,2.31
